This is the latest recevied weather packets stored in our database for station/object KM7BEO. If no packets are shown the sender has not sent any weather packets the latest 10 day(s).
| Time | Temp. | Humidity | Pressure | Rain* | Wind** | Luminosity | Snow |
|---|---|---|---|---|---|---|---|
| 1777847427 | 21.11° C | 53% | 1011.2 hPa | 0 mm | - | 177 W/m² | - |
| 1777847126 | 20.56° C | 54% | 1011.2 hPa | 0 mm | - | 126 W/m² | - |
| 1777846823 | 20.56° C | 54% | 1011.4 hPa | 0 mm | - | 169 W/m² | - |
| 1777846521 | 20° C | 56% | 1011.5 hPa | 0 mm | - | 76 W/m² | - |
| 1777846219 | 20° C | 55% | 1011.5 hPa | 0 mm | - | 75 W/m² | - |
| 1777845915 | 20.56° C | 53% | 1011.6 hPa | 0 mm | - | 70 W/m² | - |
| 1777845611 | 20.56° C | 54% | 1011.7 hPa | 0 mm | - | 77 W/m² | - |
| 1777845308 | 21.11° C | 55% | 1011.7 hPa | 0 mm | - | 104 W/m² | - |
| 1777845006 | 21.11° C | 54% | 1011.7 hPa | 0 mm | - | 69 W/m² | - |
| 1777844704 | 21.67° C | 52% | 1011.7 hPa | 0 mm | - | 67 W/m² | - |
| 1777844400 | 23.89° C | 48% | 1011.9 hPa | 0 mm | - | 64 W/m² | - |
| 1777844099 | 24.44° C | 42% | 1011.7 hPa | 0 mm | - | 65 W/m² | - |
| 1777843794 | 24.44° C | 40% | 1011.9 hPa | 0 mm | - | 66 W/m² | - |
| 1777843492 | 23.89° C | 44% | 1012 hPa | 0 mm | - | 178 W/m² | - |
| 1777843190 | 23.89° C | 42% | 1011.9 hPa | 0 mm | - | 72 W/m² | - |
| 1777842887 | 23.89° C | 42% | 1011.9 hPa | 0 mm | - | 68 W/m² | - |
| 1777842582 | 23.33° C | 42% | 1012 hPa | 0 mm | - | 91 W/m² | - |
| 1777842279 | 23.89° C | 42% | 1012.1 hPa | 0 mm | - | 65 W/m² | - |
| 1777841973 | 23.89° C | 43% | 1012.2 hPa | 0 mm | - | 92 W/m² | - |
| 1777841671 | 22.78° C | 44% | 1012.2 hPa | 0 mm | - | 534 W/m² | - |
| 1777841367 | 21.67° C | 52% | 1012.2 hPa | 0 mm | - | 696 W/m² | - |
| 1777841065 | 21.67° C | 52% | 1012.4 hPa | 0 mm | - | 699 W/m² | - |
| 1777840761 | 21.11° C | 53% | 1012.4 hPa | 0 mm | - | 700 W/m² | - |
| 1777840459 | 21.11° C | 54% | 1012.3 hPa | 0 mm | - | 701 W/m² | - |
| 1777840155 | 20.56° C | 57% | 1012.5 hPa | 0 mm | - | 700 W/m² | - |
* Rain latest hour (hover to see other rain measurements)
** Current wind speed in m/s (hover to see current wind gust speed)